KIDP

Independence Municipal Airport

Independence, Kansas, USA
METAR KIDP 220955Z AUTO 00000KT 10SM CLR 16/16 A3001 RMK AO2 T01630157
Observed Flight Rules
May-22 @ 09:55 UTC (24 minutes ago) Visual Flight Rules
Visibility Clouds
10 miles
  • Clear skies
Temperatures Readings
Current 16°C / 61°F
Dewpoint 16°C / 61°F
Humidity 100%
Altimeter 30.01" Hg
Pressure 1016 hPa
Elevation 251
METAR KIDP 220955Z AUTO 00000KT 10SM CLR 16/16 A3001 RMK AO2 T01630157
Observed Flight Rules
May-22 @ 09:55 UTC
(24 minutes ago)
VFR
Clouds
  • Clear skies
Temperature Dewpoint
16°C / 61°F 16°C / 61°F
Humidity Altimeter Pressure
100% 30.01" Hg 1016 hPa